BrazilFixed distance
Ultramaratona dos Perdidos 45 Km
15 Jul2017
Distance
45km
Finishers
183150 men33 women
Winning time
5:12:10h
Median pace
5.12km/h
Pace distribution
183 finishers · 4.01–8.65 km/h · mean 5.32
Every finisher ran the same 45 km course, so these paces are directly comparable.
Histogram of finisher pace. 183 finishers ranged from 4.01 to 8.65 kilometres per hour, with a mean of 5.32 and a median of 5.12. The busiest band is 4.0 to 4.5 kilometres per hour, with 45 finishers.
Results
Ranks 1–50 of 183
| Rank | Runner | Time | Pace | Cat. | Placing |
|---|---|---|---|---|---|
| 1 | Territorio Performance... | 5:12:10h | 8.65 | M35 | 1st M · 1st M35 |
| 2 | Territorio | 5:12:11h | 8.65 | M23 | 2nd M · 1st M23 |
| 3 | Curtlo | 5:16:10h | 8.54 | M35 | 3rd M · 2nd M35 |
| 4 | Acai Sport | 5:40:02h | 7.94 | M23 | 4th M · 2nd M23 |
| 5 | 5:43:06h | 7.87 | M23 | 5th M · 3rd M23 | |
| 6 | Omnia Sports | 5:46:01h | 7.80 | M23 | 6th M · 4th M23 |
| 7 | Bpm Anicescki | 6:04:00h | 7.42 | M35 | 7th M · 3rd M35 |
| 8 | Gon On Outdoor Team | 6:08:31h | 7.33 | M23 | 8th M · 5th M23 |
| 9 | 4Xteam | 6:10:11h | 7.29 | M23 | 9th M · 6th M23 |
| 10 | Compressport Uruguay | 6:10:31h | 7.29 | M35 | 10th M · 4th M35 |
| 11 | Bpm | 6:12:49h | 7.24 | M23 | 11th M · 7th M23 |
| 12 | Cia Dos Cavalos/Nutric... | 6:25:21h | 7.01 | M23 | 12th M · 8th M23 |
| 13 | Espaco Do Carro / Acad... | 6:29:27h | 6.93 | M45 | 13th M · 1st M45 |
| 14 | Territorio Performance... | 6:29:39h | 6.93 | W23 | 1st F · 1st W23 |
| 15 | Bmb Running Team | 6:29:52h | 6.92 | M23 | 14th M · 9th M23 |
| 16 | Gpa | 6:34:17h | 6.85 | M23 | 15th M · 10th M23 |
| 17 | Faccat/Energiavital | 6:36:23h | 6.81 | M40 | 16th M · 1st M40 |
| 18 | Corcha | 6:36:24h | 6.81 | M23 | 17th M · 11th M23 |
| 19 | Kangaroo Running Team | 6:54:25h | 6.51 | M23 | 18th M · 12th M23 |
| 20 | Nossa Saude | 6:55:08h | 6.50 | M40 | 19th M · 2nd M40 |
| 21 | Junior Acedo | 6:57:18h | 6.47 | M23 | 20th M · 13th M23 |
| 22 | Team Campeche | 6:57:46h | 6.46 | M23 | 21st M · 14th M23 |
| 23 | V8 Assessoria | 7:01:41h | 6.40 | M23 | 22nd M · 15th M23 |
| 24 | Assessocor | 7:02:51h | 6.38 | M23 | 23rd M · 16th M23 |
| 25 | V8 Assessoria | 7:09:43h | 6.28 | M23 | 24th M · 17th M23 |
| 26 | Bope-Coe | 7:11:08h | 6.26 | M40 | 25th M · 3rd M40 |
| 27 | Kailash Brasil | 7:13:24h | 6.23 | M40 | 26th M · 4th M40 |
| 28 | 7:18:41h | 6.16 | M23 | 27th M · 18th M23 | |
| 29 | Equipe Faccat/Energia ... | 7:18:44h | 6.15 | M23 | 28th M · 19th M23 |
| 30 | Lobos Da Serra/Guarapuava | 7:19:32h | 6.14 | M40 | 29th M · 5th M40 |
| 31 | 7:19:45h | 6.14 | M35 | 30th M · 5th M35 | |
| 32 | Jvm | 7:21:45h | 6.11 | M40 | 31st M · 6th M40 |
| 33 | Daniel Oliveira/ C. Ed... | 7:21:45h | 6.11 | M23 | 31st M · 20th M23 |
| 34 | Bpm Niceski | 7:26:36h | 6.05 | M40 | 33rd M · 7th M40 |
| 35 | Remiao Treinamento Fisico | 7:27:16h | 6.04 | M40 | 34th M · 8th M40 |
| 36 | Tribo Do Esporte | 7:29:09h | 6.01 | M40 | 35th M · 9th M40 |
| 37 | Pouco Pixel | 7:33:23h | 5.96 | M23 | 36th M · 21st M23 |
| 38 | 7:33:40h | 5.95 | M35 | 37th M · 6th M35 | |
| 39 | Bpm | 7:33:40h | 5.95 | M23 | 37th M · 22nd M23 |
| 40 | Fabio Pierry Ae | 7:37:09h | 5.91 | M23 | 39th M · 23rd M23 |
| 41 | So Pra Quem Pode Com Ph | 7:37:57h | 5.90 | M35 | 40th M · 7th M35 |
| 42 | Faccat / Energia Vital | 7:39:52h | 5.87 | M45 | 41st M · 2nd M45 |
| 43 | Omnia Sports | 7:42:50h | 5.83 | M23 | 42nd M · 24th M23 |
| 44 | Bala Perdida | 7:42:59h | 5.83 | M35 | 43rd M · 8th M35 |
| 45 | 7:44:04h | 5.82 | M23 | 44th M · 25th M23 | |
| 46 | Steady State | 7:45:13h | 5.80 | M40 | 45th M · 10th M40 |
| 47 | 4R - Gambaz Trail | 7:45:19h | 5.80 | M45 | 46th M · 3rd M45 |
| 48 | 4Run Assessoria Esportiva | 7:45:20h | 5.80 | M23 | 47th M · 26th M23 |
| 49 | So Locao | 7:46:47h | 5.78 | M35 | 48th M · 9th M35 |
| 50 | Sulgiro | 7:47:45h | 5.77 | M35 | 49th M · 10th M35 |
- 1Territorio Performance...1st M · 1st M35Time5:12:10hPace8.65Cat.M35
- 2Territorio2nd M · 1st M23Time5:12:11hPace8.65Cat.M23
- 3Curtlo3rd M · 2nd M35Time5:16:10hPace8.54Cat.M35
- 4Acai Sport4th M · 2nd M23Time5:40:02hPace7.94Cat.M23
- 55th M · 3rd M23Time5:43:06hPace7.87Cat.M23
- 6Omnia Sports6th M · 4th M23Time5:46:01hPace7.80Cat.M23
- 7Bpm Anicescki7th M · 3rd M35Time6:04:00hPace7.42Cat.M35
- 8Gon On Outdoor Team8th M · 5th M23Time6:08:31hPace7.33Cat.M23
- 94Xteam9th M · 6th M23Time6:10:11hPace7.29Cat.M23
- 10Compressport Uruguay10th M · 4th M35Time6:10:31hPace7.29Cat.M35
- 11Bpm11th M · 7th M23Time6:12:49hPace7.24Cat.M23
- 12Cia Dos Cavalos/Nutric...12th M · 8th M23Time6:25:21hPace7.01Cat.M23
- 13Espaco Do Carro / Acad...13th M · 1st M45Time6:29:27hPace6.93Cat.M45
- 14Territorio Performance...1st F · 1st W23Time6:29:39hPace6.93Cat.W23
- 15Bmb Running Team14th M · 9th M23Time6:29:52hPace6.92Cat.M23
- 16Gpa15th M · 10th M23Time6:34:17hPace6.85Cat.M23
- 17Faccat/Energiavital16th M · 1st M40Time6:36:23hPace6.81Cat.M40
- 18Corcha17th M · 11th M23Time6:36:24hPace6.81Cat.M23
- 19Kangaroo Running Team18th M · 12th M23Time6:54:25hPace6.51Cat.M23
- 20Nossa Saude19th M · 2nd M40Time6:55:08hPace6.50Cat.M40
- 21Junior Acedo20th M · 13th M23Time6:57:18hPace6.47Cat.M23
- 22Team Campeche21st M · 14th M23Time6:57:46hPace6.46Cat.M23
- 23V8 Assessoria22nd M · 15th M23Time7:01:41hPace6.40Cat.M23
- 24Assessocor23rd M · 16th M23Time7:02:51hPace6.38Cat.M23
- 25V8 Assessoria24th M · 17th M23Time7:09:43hPace6.28Cat.M23
- 26Bope-Coe25th M · 3rd M40Time7:11:08hPace6.26Cat.M40
- 27Kailash Brasil26th M · 4th M40Time7:13:24hPace6.23Cat.M40
- 2827th M · 18th M23Time7:18:41hPace6.16Cat.M23
- 29Equipe Faccat/Energia ...28th M · 19th M23Time7:18:44hPace6.15Cat.M23
- 30Lobos Da Serra/Guarapuava29th M · 5th M40Time7:19:32hPace6.14Cat.M40
- 3130th M · 5th M35Time7:19:45hPace6.14Cat.M35
- 32Jvm31st M · 6th M40Time7:21:45hPace6.11Cat.M40
- 33Daniel Oliveira/ C. Ed...31st M · 20th M23Time7:21:45hPace6.11Cat.M23
- 34Bpm Niceski33rd M · 7th M40Time7:26:36hPace6.05Cat.M40
- 35Remiao Treinamento Fisico34th M · 8th M40Time7:27:16hPace6.04Cat.M40
- 36Tribo Do Esporte35th M · 9th M40Time7:29:09hPace6.01Cat.M40
- 37Pouco Pixel36th M · 21st M23Time7:33:23hPace5.96Cat.M23
- 3837th M · 6th M35Time7:33:40hPace5.95Cat.M35
- 39Bpm37th M · 22nd M23Time7:33:40hPace5.95Cat.M23
- 40Fabio Pierry Ae39th M · 23rd M23Time7:37:09hPace5.91Cat.M23
- 41So Pra Quem Pode Com Ph40th M · 7th M35Time7:37:57hPace5.90Cat.M35
- 42Faccat / Energia Vital41st M · 2nd M45Time7:39:52hPace5.87Cat.M45
- 43Omnia Sports42nd M · 24th M23Time7:42:50hPace5.83Cat.M23
- 44Bala Perdida43rd M · 8th M35Time7:42:59hPace5.83Cat.M35
- 4544th M · 25th M23Time7:44:04hPace5.82Cat.M23
- 46Steady State45th M · 10th M40Time7:45:13hPace5.80Cat.M40
- 474R - Gambaz Trail46th M · 3rd M45Time7:45:19hPace5.80Cat.M45
- 484Run Assessoria Esportiva47th M · 26th M23Time7:45:20hPace5.80Cat.M23
- 49So Locao48th M · 9th M35Time7:46:47hPace5.78Cat.M35
- 50Sulgiro49th M · 10th M35Time7:47:45hPace5.77Cat.M35
Showing ranks 1–50 of 183